createdAt,value
2019-02-22T00:00:53.999Z,8.96
2019-02-22T00:05:55.723Z,9.00
2019-02-22T00:10:57.286Z,9.01
2019-02-22T00:15:58.840Z,8.99
2019-02-22T00:21:00.525Z,8.97
2019-02-22T00:26:02.105Z,8.95
2019-02-22T00:31:03.686Z,8.95
2019-02-22T00:36:05.321Z,8.94
2019-02-22T00:41:07.154Z,8.92
2019-02-22T00:46:08.716Z,8.95
2019-02-22T00:51:10.311Z,8.96
2019-02-22T00:56:11.897Z,8.98
2019-02-22T01:01:13.457Z,8.99
2019-02-22T01:06:15.006Z,9.02
2019-02-22T01:11:16.634Z,9.04
2019-02-22T01:16:18.234Z,9.06
2019-02-22T01:21:19.874Z,9.08
2019-02-22T01:26:21.504Z,9.06
2019-02-22T01:31:23.187Z,9.08
2019-02-22T01:36:24.734Z,9.10
2019-02-22T01:41:26.293Z,9.11
2019-02-22T01:46:27.890Z,9.09
2019-02-22T01:51:29.473Z,9.09
2019-02-22T01:56:31.050Z,9.11
2019-02-22T02:01:32.727Z,9.11
2019-02-22T02:06:34.303Z,9.12
2019-02-22T02:11:35.866Z,9.14
2019-02-22T02:16:37.573Z,9.15
2019-02-22T02:21:39.143Z,9.17
2019-02-22T02:26:40.875Z,9.16
2019-02-22T02:31:42.422Z,9.18
2019-02-22T02:36:43.981Z,9.16
2019-02-22T02:41:45.546Z,9.14
2019-02-22T02:46:47.143Z,9.11
2019-02-22T02:51:48.719Z,9.10
2019-02-22T02:56:50.402Z,9.10
2019-02-22T03:01:52.091Z,9.11
2019-02-22T03:07:13.593Z,9.10
2019-02-22T03:12:15.162Z,9.12
2019-02-22T03:17:16.839Z,9.13
2019-02-22T03:22:18.406Z,9.14
2019-02-22T03:27:19.982Z,9.15
2019-02-22T03:32:21.551Z,9.15
2019-02-22T03:37:23.133Z,9.14
2019-02-22T03:42:24.694Z,9.14
2019-02-22T03:47:26.298Z,9.12
2019-02-22T03:52:37.721Z,9.11
2019-02-22T03:57:39.386Z,9.13
2019-02-22T04:02:40.982Z,9.11
2019-02-22T04:07:42.649Z,9.10
2019-02-22T04:12:44.243Z,9.06
2019-02-22T04:17:45.832Z,9.09
2019-02-22T04:22:47.429Z,9.11
2019-02-22T04:27:49.033Z,9.11
2019-02-22T04:32:50.698Z,9.07
2019-02-22T04:37:52.282Z,9.07
2019-02-22T04:42:53.878Z,9.03
2019-02-22T04:47:55.565Z,9.02
2019-02-22T04:52:57.140Z,9.00
2019-02-22T04:57:58.799Z,9.02
2019-02-22T05:03:00.446Z,9.03
2019-02-22T05:08:02.036Z,9.02
2019-02-22T05:13:03.735Z,9.01
2019-02-22T05:18:05.368Z,9.00
2019-02-22T05:23:07.653Z,8.99
2019-02-22T05:28:09.482Z,8.97
2019-02-22T05:33:11.158Z,8.95
2019-02-22T05:38:12.739Z,8.93
2019-02-22T05:43:14.407Z,8.88
2019-02-22T05:48:15.982Z,8.86
2019-02-22T05:53:17.567Z,8.86
2019-02-22T05:58:19.138Z,8.86
2019-02-22T06:03:20.810Z,8.88
2019-02-22T06:08:22.376Z,8.90
2019-02-22T06:13:23.950Z,8.93
2019-02-22T06:18:25.495Z,8.96
2019-02-22T06:23:27.067Z,8.99
2019-02-22T06:28:28.731Z,9.03
2019-02-22T06:33:30.285Z,9.05
2019-02-22T06:38:31.864Z,9.02
2019-02-22T06:43:33.548Z,9.02
2019-02-22T06:48:35.122Z,8.99
2019-02-22T06:53:36.694Z,8.98
2019-02-22T06:58:38.257Z,8.98
2019-02-22T07:03:39.845Z,8.97
2019-02-22T07:08:49.193Z,9.02
2019-02-22T07:13:50.882Z,9.00
2019-02-22T07:18:52.538Z,9.06
2019-02-22T07:23:54.116Z,9.05
2019-02-22T07:28:55.695Z,9.06
2019-02-22T07:33:57.258Z,9.05
2019-02-22T07:38:58.818Z,9.10
2019-02-22T07:44:00.401Z,9.20
2019-02-22T07:49:01.975Z,9.18
2019-02-22T07:54:03.656Z,9.12
2019-02-22T07:59:05.253Z,9.09
2019-02-22T08:04:06.793Z,9.08
2019-02-22T08:09:08.366Z,9.02
2019-02-22T08:14:09.929Z,9.04
2019-02-22T08:19:11.530Z,8.99
2019-02-22T08:24:13.134Z,8.95
2019-02-22T08:29:14.722Z,8.88
2019-02-22T08:34:16.326Z,8.76
2019-02-22T08:44:34.982Z,8.56
2019-02-22T08:49:36.596Z,8.52
2019-02-22T08:54:46.556Z,8.50
2019-02-22T08:59:41.672Z,8.45
2019-02-22T09:04:43.267Z,8.40
2019-02-22T09:09:44.858Z,8.28
2019-02-22T09:14:46.460Z,8.19
2019-02-22T09:19:48.046Z,8.21
2019-02-22T09:24:49.631Z,8.26
2019-02-22T09:29:58.870Z,8.30
2019-02-22T09:34:54.776Z,8.36
2019-02-22T09:39:56.354Z,8.45
2019-02-22T09:44:57.996Z,8.55
2019-02-22T09:49:59.605Z,8.64
2019-02-22T09:55:01.191Z,8.49
2019-02-22T10:00:03.205Z,8.33
2019-02-22T10:05:05.566Z,8.26
2019-02-22T10:10:07.866Z,8.22
2019-02-22T10:15:09.569Z,8.05
2019-02-22T10:20:11.240Z,8.00
2019-02-22T10:25:12.939Z,8.02
2019-02-22T10:30:15.342Z,8.07
2019-02-22T10:35:17.041Z,8.03
2019-02-22T10:40:18.631Z,7.92
2019-02-22T10:45:20.240Z,7.87
2019-02-22T10:50:21.835Z,7.97
2019-02-22T10:55:23.604Z,8.22
2019-02-22T11:00:25.215Z,8.34
2019-02-22T11:05:26.825Z,8.50
2019-02-22T11:10:28.425Z,8.73
2019-02-22T11:15:30.001Z,8.60
2019-02-22T11:20:31.597Z,8.45
2019-02-22T11:25:33.205Z,8.17
2019-02-22T11:30:34.873Z,7.98
2019-02-22T11:35:36.474Z,7.74
2019-02-22T11:40:38.077Z,7.57
2019-02-22T11:45:39.762Z,7.40
2019-02-22T11:50:41.591Z,7.45
2019-02-22T11:55:43.441Z,7.45
2019-02-22T12:00:45.271Z,7.37
2019-02-22T12:05:47.004Z,7.33
2019-02-22T12:10:48.671Z,7.23
2019-02-22T12:15:50.382Z,7.36
2019-02-22T12:20:54.234Z,7.41
2019-02-22T12:25:55.836Z,7.23
2019-02-22T12:30:57.489Z,7.27
2019-02-22T12:35:59.187Z,7.23
2019-02-22T12:41:00.796Z,7.17
2019-02-22T12:46:02.399Z,7.10
2019-02-22T12:51:04.176Z,7.12
2019-02-22T12:56:05.879Z,7.00
2019-02-22T13:01:08.257Z,6.83
2019-02-22T13:06:09.969Z,6.76
2019-02-22T13:11:11.585Z,6.83
2019-02-22T13:16:13.183Z,6.81
2019-02-22T13:21:14.809Z,6.57
2019-02-22T13:26:18.069Z,6.39
2019-02-22T13:31:29.707Z,6.37
2019-02-22T13:36:23.580Z,6.31
2019-02-22T13:41:25.300Z,6.26
2019-02-22T13:46:27.044Z,6.43
2019-02-22T13:51:28.626Z,6.34
2019-02-22T13:56:30.223Z,6.36
2019-02-22T14:01:31.815Z,6.34
2019-02-22T14:06:33.430Z,6.24
2019-02-22T14:11:35.022Z,6.24
2019-02-22T14:16:36.747Z,6.16
2019-02-22T14:21:38.313Z,6.02
2019-02-22T14:26:39.932Z,5.89
2019-02-22T14:31:41.619Z,6.00
2019-02-22T14:36:43.445Z,6.03
2019-02-22T14:41:45.033Z,5.91
2019-02-22T14:46:46.643Z,5.95
2019-02-22T14:51:48.220Z,5.95
2019-02-22T14:56:49.943Z,6.00
2019-02-22T15:01:51.520Z,5.84
2019-02-22T15:06:53.209Z,5.85
2019-02-22T15:11:54.948Z,5.76
2019-02-22T15:17:14.538Z,5.71
2019-02-22T15:22:16.256Z,5.66
2019-02-22T15:27:17.847Z,5.85
2019-02-22T15:32:19.423Z,5.82
2019-02-22T15:37:21.027Z,5.95
2019-02-22T15:42:22.623Z,6.07
2019-02-22T15:47:24.205Z,6.19
2019-02-22T15:52:25.778Z,6.25
2019-02-22T15:57:27.495Z,6.43
2019-02-22T16:02:29.088Z,6.53
2019-02-22T16:07:30.807Z,6.40
2019-02-22T16:12:32.487Z,6.17
2019-02-22T16:17:34.199Z,5.96
2019-02-22T16:22:35.772Z,5.76
2019-02-22T16:27:37.378Z,5.57
2019-02-22T16:32:38.969Z,5.38
2019-02-22T16:37:40.583Z,5.09
2019-02-22T16:42:42.261Z,4.94
2019-02-22T16:47:43.901Z,4.87
2019-02-22T16:52:45.618Z,4.79
2019-02-22T16:57:47.187Z,4.74
2019-02-22T17:02:48.758Z,4.60
2019-02-22T17:07:50.672Z,4.49
2019-02-22T17:12:52.265Z,4.37
2019-02-22T17:17:53.858Z,4.33
2019-02-22T17:22:55.424Z,4.33
2019-02-22T17:27:57.018Z,4.27
2019-02-22T17:32:58.613Z,4.14
2019-02-22T17:38:00.201Z,4.01
2019-02-22T17:43:01.772Z,4.00
2019-02-22T17:48:03.479Z,3.88
2019-02-22T17:53:05.066Z,3.74
2019-02-22T17:58:06.654Z,3.67
2019-02-22T18:03:08.212Z,3.47
2019-02-22T18:08:09.767Z,3.39
2019-02-22T18:13:11.354Z,3.35
2019-02-22T18:18:12.963Z,3.61
2019-02-22T18:23:14.614Z,3.47
2019-02-22T18:28:16.165Z,3.62
2019-02-22T18:33:17.731Z,3.57
2019-02-22T18:38:19.316Z,3.39
2019-02-22T18:43:20.949Z,3.25
2019-02-22T18:48:24.280Z,3.16
2019-02-22T18:53:25.996Z,3.09
2019-02-22T18:58:27.580Z,2.97
2019-02-22T19:03:29.169Z,2.89
2019-02-22T19:08:32.688Z,2.79
2019-02-22T19:13:34.401Z,2.85
2019-02-22T19:18:35.994Z,2.82
2019-02-22T19:23:37.604Z,2.82
2019-02-22T19:28:39.189Z,2.85
2019-02-22T19:33:40.774Z,2.86
2019-02-22T19:38:43.666Z,2.86
2019-02-22T19:43:45.286Z,2.77
2019-02-22T19:48:46.870Z,2.64
2019-02-22T19:53:48.488Z,2.58
2019-02-22T19:58:50.069Z,2.68
2019-02-22T20:03:51.681Z,2.65
2019-02-22T20:08:53.385Z,2.53
2019-02-22T20:13:55.074Z,2.46
2019-02-22T20:18:56.635Z,2.46
2019-02-22T20:23:58.189Z,2.46
2019-02-22T20:28:59.796Z,2.34
2019-02-22T20:34:01.370Z,2.29
2019-02-22T20:39:04.302Z,2.23
2019-02-22T20:44:05.893Z,2.23
2019-02-22T20:49:07.502Z,2.37
2019-02-22T20:54:09.199Z,2.26
2019-02-22T20:59:10.751Z,2.12
2019-02-22T21:04:12.312Z,1.94
2019-02-22T21:09:15.278Z,1.83
2019-02-22T21:14:17.900Z,1.94
2019-02-22T21:19:19.506Z,1.94
2019-02-22T21:24:21.265Z,1.79
2019-02-22T21:29:22.864Z,1.81
2019-02-22T21:34:24.449Z,1.82
2019-02-22T21:39:26.004Z,1.76
2019-02-22T21:44:27.611Z,1.82
2019-02-22T21:49:29.203Z,1.62
2019-02-22T21:54:30.767Z,1.57
2019-02-22T21:59:32.354Z,1.73
2019-02-22T22:04:33.932Z,1.81
2019-02-22T22:09:35.498Z,1.95
2019-02-22T22:14:37.146Z,1.91
2019-02-22T22:19:38.725Z,1.76
2019-02-22T22:24:40.313Z,1.84
2019-02-22T22:29:41.903Z,1.81
2019-02-22T22:34:43.479Z,1.73
2019-02-22T22:39:45.042Z,1.78
2019-02-22T22:44:46.625Z,1.77
2019-02-22T22:49:48.489Z,1.70
2019-02-22T22:54:50.046Z,1.50
2019-02-22T22:59:51.624Z,1.35
2019-02-22T23:04:53.197Z,1.38
2019-02-22T23:09:54.745Z,1.53
2019-02-22T23:14:56.299Z,1.57
2019-02-22T23:19:57.865Z,1.51
2019-02-22T23:24:59.437Z,1.46
2019-02-22T23:30:01.039Z,1.42
2019-02-22T23:35:03.393Z,1.39
2019-02-22T23:40:05.081Z,1.34
2019-02-22T23:45:06.962Z,1.32
2019-02-22T23:50:08.619Z,1.25
2019-02-22T23:55:10.204Z,1.22
